Timeline UpdatesTrip UpdatesNews PostsPvt Posts♥♥Travel TipsAdmin PostsConv PostsFollowed PostsChat RequestsBlog PostsPNR Posts

Disclaimer
Search
 
 
Fri Dec 19, 2014 15:38:09 ISTHomeTrainsΣChainsAtlasPNRForumGalleryNewsFAQTripsMembersLoginFeedback
No Recent News for this Train
Other Trains in the News **new
Latest...
MST holders permitted to travel in IInd class general coaches between Ghaziabad-Meerut-Saharanpur
Sun Nov 23, 2014 (07:47PM)
⇐ Return Journey: Train# 19020

19019/Mumbai Bandra Terminus- Dehradun Express

Time-Table HAS CHANGED.
Nov 23 (7:47PM)
Change Departure Station:
Change Arrival Station:
Post a Train Travel TipPost a Train Travel Tip **new
Post a Comment/Question/Picture/VideoPost a Comment/Question/Picture/Video
Pantry/Catering
✕ NO Pantry Car
✓ Catering Avbl
Loco/Rake Reversals
LRJ/Laksar Junction (4); SRE/Saharanpur Junction (6);
RSA - Rake Sharing
Rake/Coach Composition
LOCO-SLR-S9-S8-S7-S6-S5-S4-S3-S2-S1-AB1-GEN-GEN-HCPV-SLR;;; S9,S8,S7,S6 -(BANDRA TERMINUS-HARIDWAR); Rest Coaches-(BANDRA TERMINUS-DEHRADUN) ; Entry# 571623.
Loco
GZB WAP7 - (BDTS - NZM) TKD WDM 3A -...
Read more...
(NZM - DDN).
News    PNR    Forum    Time-Table    Availability    Fare Chart    Map    Arr/Dep History    Trips    Gallery    ΣChains    X/O    Timeline    
Travel Time: 4h 0m    7 halts    Distance: 233 km    Avg Speed: 58 km/hr
Type: Mail/Express
Zone: WR/Western
Departs @ 00:40 (Avg 6m late)
Platform# 6
SMTWTFS
Mumbai Borivali/BVI 
Arrives @ 04:40 (Avg 2m early)
Platform# 1
SMTWTFS
Surat/ST 

7 halts. 40 intermediate Stations between Mumbai Borivali and Surat

Show ALL intermediate Stations  Show Old Time-Table

#TrkCodeStation NameX/OArrivesAvgDepartsAvgHaltPFDay#KmSpeedElevZoneAddress
1/==/BDTSMumbai Bandra Terminus (5)  -00:05+011-18.7374mWRMumbai 400050, Maharashtra
2/==/BVIMumbai Borivali (8)»  00:38 00:35+600:40+62 5m610.05019mWRMumbai - 400092, Maharashtra
3/==/BSRVasai Road (7)  01:03 01:01+201:05 01:03+42m3117.4747mWRVasai 401202, Maharashtra
4/==/PLGPalghar (3)X  01:35+1501:37+182m1157.05219mWRPalghar, Maharashtra
5/==/DRDDahanu Road (5)X  02:15+702:17+82m1190.09112mWRDahanu, Maharashtra
6/==/VAPIVapi (3)X  02:49+1102:51+122m11138.55427mWRVapi, Gujarat
7/==/BLValsad (3)X  03:23 03:20+503:25+82 5m11164.75715mWRValsad, Gujarat
8/==/BIMBilimora Junction (4)X  03:44+403:46+42m11182.77911mWRBilimora, Gujarat
9/==/NVSNavsari (3)X  04:02+404:04+42m11203.84914mWRNavsari, Gujarat
10/==/STSurat (4)•X  04:40-204:45+05m11233.47219mWRSurat 395001, Gujarat
11/==/KSBKosamba Junction (3)05:11+405:13+42m--1264.813930mWRKosamba, Gujarat
12/==/AKVAnkleshwar Junction (4)X  05:19 05:21+1005:21 05:23+102m11283.44319mWRAnkleshwar, Gujarat
13/==/BHBharuch Junction (5)X  05:34 05:36+805:36 05:38+82m31292.78719mWRBharuch, Gujarat
14/==/MYGMiyagam Karjan (2)  06:04 06:06+1306:06 06:08+132m21333.45629mWRKarjan, Gujarat
15/==/BRCVadodara Junction (7)XO  06:40+1706:50+1810m21363.26736mWRVadodara 390005, Gujarat
16/==/SMLASamlaya Junction (3)  07:12 07:14+1907:14 07:16+182m21389.86767mWRVadodara, Gujarat
17/==/CPNChampaner Road Junction  07:24 07:26+1307:26 07:28+132m21401.05478mWRPanchmahal, Gujarat
18/==/DRLDerolX  07:40 07:42+1107:42 07:44+112m21413.57681mWRKalol, Gujarat
19/==/KRSAKharsaliya (2)X  07:52 07:54+1107:54 07:56+102m21426.227107mWRPanchmahal, Gujarat
20/==/GDAGodhra Junction (3)  08:20+308:25+35m21437.158122mWRGodhra, Gujarat
21/==/SATSant Road (2)  08:44 08:46+2108:46 08:47+212 1m21457.565169mWROrwara, Gujarat
22/==/PPDPiplod Junction  08:56 08:58+2308:58 08:59+252 1m21469.368209mWRPiplod, Gujarat
23/==/LMKLimkhedaXO  09:04 09:06+2809:06 09:08+302m21477.325205mWRLimkheda, Gujarat
24/==/MAMMangal Mahudi (2)X  09:27 09:29+1809:29 09:30+182 1m21485.997248mWRDabhada, Gujarat
25/==/DHDDahod (3)XO  09:50 09:45+2709:55 09:50+265m21510.245313mWRDahod, Gujarat
26/==/BIOBordi (2)  10:02 10:04+2510:04 10:05+252 1m--1520.868289mWRNational Highway 59, Gujarat
27/==/ANASAnas (2)X  10:10 10:12+2510:12 10:13+262 1m--1528.873288mWRMadhya Pradesh 389154 ?, Madhya Pradesh
28/==/MGNMeghnagar (3)  10:23 10:25+2810:25 10:27+292m--1543.360317mWRJhabua, Madhya Pradesh
29/==/THDRThandla Road (2)  10:33 10:35+2910:35 10:36+292 1m--1551.364317mWRJhabua, Madhya Pradesh
30/==/PCNPanch Pipila (2)  10:47 10:49+2910:49 10:50+312 1m--1565.252369mWRSH 39A, Madhya Pradesh
31/==/AGRAmargarh (2)  10:59 11:01+3011:01 11:02+302 1m--1574.750410mWRSH 39A, Madhya Pradesh
32/==/BMIBamnia (2)  11:06 11:07+3011:08 11:09+302m--1578.945392mWRBamnia, Madhya Pradesh
33/==/BOGBhairongarh (2)  11:15 11:17+2911:17 11:18+292 1m--1584.965374mWRBhairongarh Railway Station, Madhya Pradesh
34/==/RTIRaoti (2)X  11:27 11:29+3111:29 11:30+312 1m--1596.754409mWRState Highway 39A, Madhya Pradesh
35/==/BILDBildi (2)X  11:36 11:38+3111:38 11:39+312 1m--1603.960422mWRMadhya Pradesh, Madhya Pradesh
36/==/MRNMorwani (2)X  11:46 11:48+3211:48 11:49+322 1m--1612.921459mWRDantoda, Madhya Pradesh
37/==/RTMRatlam Junction (7)X  12:20+2612:40+2420m51623.649495mWRRatlam 457001, Madhya Pradesh
38/==/BODBangrod  12:50 12:52+3012:52 12:53+302 1m--1633.555484mWRRatlam, Madhya Pradesh
39/==/RNHRunkhera  12:59 13:01+3213:01 13:02+322 1m--1640.857478mWRUjjain, Madhya Pradesh
40/==/KUHKhachrod (2)X  13:11 13:13+3013:13 13:15+312m--1651.314497mWRUjjain, Madhya Pradesh
41/==/NADNagda Junction (4)  14:15+314:25+310m11665.157468mWRNagda, Madhya Pradesh
42/==/MEPMahidpur RoadX  14:43+514:45+72m--1682.180493mWCRGogapur, Madhya Pradesh
43/==/LNRLuni RichhaX  14:53+914:55+102m--1692.861471mWCRAlote, Madhya Pradesh
44/==/VMAVikramgarh Alot (2)  15:08+815:10+92m21706.051443mWCRKota Division, Madhya Pradesh
45/==/THURThuria  15:19+915:21+92m--1713.771430mWCRMDR 45, Madhya Pradesh
46/==/CMUChau Mahla (3)X  15:33+915:35+122m21727.866426mWCRJhalawar, Rajasthan
47/==/SVASuwasra (2)X  15:48 15:49+1215:50+142 1m--1743.262450mWCRSuwasra, Madhya Pradesh
48/==/SGZShamgarh (3)X  16:03+1416:08+145m--1756.659463mWCRMandsaur, Madhya Pradesh
49/==/GOHGaroth (2)X  16:18 16:19+1316:20+152 1m21767.572441mWCRMadhya Pradesh 458880, Madhya Pradesh
50/==/BWMBhawani Mandi (3)X  16:39+1316:41+162m--1790.158384mWCRBhawani Mandi, Madhya Pradesh
51/==/JHWJhalawar Road (3)  16:58+1317:00+132m--1806.657361mWCRJhalawar City, Rajasthan
52/==/RMARamganj Mandi Junction (3)X  17:13+1017:15+142m--1819.042358mWCRRamganj Mandi, Rajasthan
53/==/MKXMorak (2)  17:28+1117:30+122m--1828.068337mWCRMorak, Rajasthan
54/==/DARADaraX  17:43+1317:45+142m--1842.860354mWCRDara, Rajasthan
55/==/DKNTDakaniya Talav (2)O  18:33 18:23+1018:35 18:25+132m11880.914278mWCRKota, Rajasthan
56/==/KOTAKota Junction (5)X  19:00 19:05+119:30 19:35+830m11890.236256mWCRKota, Rajasthan
57|--|GQLGurla  19:39 19:44+1319:41 19:46+122m--1895.753251mWCRSH 33, Rajasthan
58/==/KPTNKeshorai PatanXO  19:50 19:55+1219:52 19:57+122m--1903.686243mWCRSH 33, Rajasthan
59/==/LKELakheri (3)X  20:22 20:30+1820:24 20:32+192m--1950.751228mWCRBundi, Rajasthan
60/==/IDGIndargarh Sumerganj Mandi (2)XO  20:38 20:45+1920:40 20:47+202m--1961.753247mWCRIndargarh, Rajasthan
61/==/SWMSawai Madhopur Junction (4)  21:10 21:28+1521:15 21:30+195 2m--1997.979266mWCRSawai Madhopur, Rajasthan
62/==/MLZMalarnaO  21:43 21:53+2221:45 21:55+222m--11028.145236mWCRSawai Madhopur, Rajasthan
63/==/GGCGangapur City (3)  22:35 22:40+1522:40 22:45+195m211061.889270mWCRGangapur, Rajasthan
64/==/SMBJShri Mahabirji (3)  23:10 23:08+2723:12 23:10+282m--11095.947240mWCRKarauli, Rajasthan
65/==/HANHindaun City (2)O  23:23+2523:25+272m--11106.144230mWCRKarauli, Rajasthan
66/==/BXNBayana Junction (3)  00:10+1900:15+215m--21139.057198mWCRBayana, Rajasthan
67/==/BTEBharatpur Junction (5)X  00:55 00:59+1301:00+355 1m--21181.025174mWCRBharatpur, Rajasthan
68/==/MTJMathura Junction (10)  02:20+902:25+135m321214.575179mNCRMathura, Uttar Pradesh
69/==/KSVKosi Kalan (3)  02:58+1503:00+162m121256.048189mNCRKosi Kalan, Uttar Pradesh
70/==/PWLPalwal (8)O  03:53-103:55+22m--21298.462200mNRPalwal, Haryana
71/==/ASTAsaoti (5)  04:08 04:06+604:10 04:08+62m321309.759203mNRAsaoti, Haryana
72/==/BVHBallabgarh (5)  04:20 04:18+904:22 04:20+92m321319.637203mNRFaridabad, Haryana
73/==/FDBFaridabad (4)O  04:33+1004:35+102m221327.739206mNRold Faridabad, Haryana
74/==/TKDTuglakabad (2)  04:47 04:52+1004:49 04:54+112m221338.845213mNRNear Tughlakabad Metro Station, Delhi NCT
75/==/OKAOkhla (4)O  05:06 05:02+1305:08 05:04+132m--21344.814221mNRIshwar Nagar Mathura Road, Delhi NCT
76/==/NZMDelhi Hazrat Nizamuddin (7)X05:25 05:20+1305:50+1425 30m121348.542209mNRNew Delhi 110013, Delhi NCT
77/==/SBBSahibabad Junction (5)X  06:11 06:13+3606:13 06:15+372m--21364.522209mNRGhaziabad, Uttar Pradesh
78/==/GZBGhaziabad Junction (6)  06:33+3306:35+332m121371.259217mNRGhaziabad, Uttar Pradesh
79%==%GZNNew Ghaziabad (2)  06:41-06:43-2m--21377.170213mNRGhaziabad, Uttar Pradesh
80%==%MUDMuradnagar (2)  06:53+5306:55+1:022m--21388.967220mNRGhaziabad, Uttar Pradesh
81%==%MDNRModinagar (2)X  07:04+1:0507:06+1:082m--21399.049221mNRGhaziabad, Uttar Pradesh
82%==%MTCMeerut City Junction (6)XO  07:25 07:30+1:0108:30 08:43+3965 73m421418.452229mNRMeerut, Uttar Pradesh
83%--%MUTMeerut Cantt. (2)  08:38 08:48+4108:40 08:50+462m--21422.825230mNRMeerut, Uttar Pradesh
84%--%PQYPabli Khas (1) new halt!!X  09:01+4409:03+472m--21427.433229mNRMeerut, Uttar Pradesh
85%--%DRLADaurala (1) new halt!!X  09:15+4409:17+482m--21433.957232mNRMeerut, Uttar Pradesh
86%--%KATKhatauli (2)  09:58 09:36+4410:00 09:38+452m121451.934239mNRKhatauli, Uttar Pradesh
87%--%JDWJarauda Nara (1) new halt!!X  10:09+3810:10+381m--21469.314245mNRMuzaffarNagar, Uttar Pradesh
88%--%MOZMuzaffarnagar (3)X  10:35 10:30+2610:37 10:32+302m221474.033247mNRMuzaffarNagar, Uttar Pradesh
89%--%BMHRBamanheri (2) new halt!!X  10:41+2910:43+302m--21479.050249mNRMuzaffarnagar, Uttar Pradesh
90%--%DBDDeoband (2)X  11:13 11:06+2311:15 11:08+232m--21498.131258mNRSaharanpur, Uttar Pradesh
91/--/SRESaharanpur Junction (6)XO12:10 12:15+612:45+235 30m521532.277276mNRSaharanpur, Uttar Pradesh
92/==/RKRoorkee (3)  13:15 13:12+2613:17+252 5m121567.038264mNRRoorkee - 247667, Uttarakhand
93/==/LRJLaksar Junction (4)X13:45+2214:10+2925m--21584.869238mNRLaksar, Uttarakhand
94%--%JWPJwalapur  14:30+5514:32+1:002m121607.713292mNRHaridwar, Uttarakhand
95%--%HWHaridwar Junction (9)X  14:50+4515:15 15:20+4125 30m121611.727294mNRHaridwar, Uttarakhand
96|--|MOTCMotichur (2)  15:25 15:30+4715:27 15:32+502m121616.236312mNRHaridwar, Uttarakhand
97%--%RWLRaiwala Junction (2)  15:48 15:43+4915:50 15:45+532m121622.827361mNRRishikesh, Uttarakhand
98%--%DWODoiwala  16:33 16:31+4416:35 16:33+472m121643.519484mNRDehradun, Uttarakhand
99%--%DDNDehradun (4)  17:35+18-321663.3-648mNRDehradun, Uttarakhand
Scroll to Top
Scroll to Bottom


Go to Mobile site